sensor_id;sensor_type;location;lat;lon;timestamp;P1;durP1;ratioP1;P2;durP2;ratioP2
16354;SDS011;8287;51.644;8.494;2023-02-15T00:01:22;32.58;;;30.80;;
16354;SDS011;8287;51.644;8.494;2023-02-15T00:03:48;31.27;;;29.60;;
16354;SDS011;8287;51.644;8.494;2023-02-15T00:06:15;31.65;;;29.90;;
16354;SDS011;8287;51.644;8.494;2023-02-15T00:08:42;32.28;;;30.23;;
16354;SDS011;8287;51.644;8.494;2023-02-15T00:11:11;32.22;;;30.40;;
16354;SDS011;8287;51.644;8.494;2023-02-15T00:13:40;33.15;;;31.27;;
16354;SDS011;8287;51.644;8.494;2023-02-15T00:16:08;40.28;;;37.60;;
16354;SDS011;8287;51.644;8.494;2023-02-15T00:18:36;33.72;;;31.65;;
16354;SDS011;8287;51.644;8.494;2023-02-15T00:21:04;35.08;;;33.08;;
16354;SDS011;8287;51.644;8.494;2023-02-15T00:23:31;33.40;;;31.48;;
16354;SDS011;8287;51.644;8.494;2023-02-15T00:26:05;35.63;;;32.85;;
16354;SDS011;8287;51.644;8.494;2023-02-15T00:28:33;33.53;;;31.38;;
16354;SDS011;8287;51.644;8.494;2023-02-15T00:31:04;30.52;;;28.60;;
16354;SDS011;8287;51.644;8.494;2023-02-15T00:33:37;34.10;;;31.58;;
16354;SDS011;8287;51.644;8.494;2023-02-15T00:36:11;34.15;;;31.83;;
16354;SDS011;8287;51.644;8.494;2023-02-15T00:38:41;35.80;;;33.08;;
16354;SDS011;8287;51.644;8.494;2023-02-15T00:41:08;33.50;;;31.23;;
16354;SDS011;8287;51.644;8.494;2023-02-15T00:43:36;36.55;;;34.13;;
16354;SDS011;8287;51.644;8.494;2023-02-15T00:46:03;33.55;;;31.33;;
16354;SDS011;8287;51.644;8.494;2023-02-15T00:48:31;36.55;;;33.95;;
16354;SDS011;8287;51.644;8.494;2023-02-15T00:50:59;34.03;;;31.58;;
16354;SDS011;8287;51.644;8.494;2023-02-15T00:53:27;34.80;;;32.28;;
16354;SDS011;8287;51.644;8.494;2023-02-15T00:55:54;32.83;;;30.73;;
16354;SDS011;8287;51.644;8.494;2023-02-15T00:58:21;32.35;;;30.25;;
16354;SDS011;8287;51.644;8.494;2023-02-15T01:00:47;35.65;;;33.17;;
16354;SDS011;8287;51.644;8.494;2023-02-15T01:03:16;36.40;;;34.20;;
16354;SDS011;8287;51.644;8.494;2023-02-15T01:05:48;36.65;;;34.08;;
16354;SDS011;8287;51.644;8.494;2023-02-15T01:08:15;38.90;;;36.72;;
16354;SDS011;8287;51.644;8.494;2023-02-15T01:10:42;33.50;;;31.50;;
16354;SDS011;8287;51.644;8.494;2023-02-15T01:13:12;33.30;;;31.42;;
16354;SDS011;8287;51.644;8.494;2023-02-15T01:15:39;32.83;;;30.27;;
16354;SDS011;8287;51.644;8.494;2023-02-15T01:18:06;33.45;;;31.33;;
16354;SDS011;8287;51.644;8.494;2023-02-15T01:20:35;31.33;;;29.25;;
16354;SDS011;8287;51.644;8.494;2023-02-15T01:23:04;33.50;;;31.65;;
16354;SDS011;8287;51.644;8.494;2023-02-15T01:25:32;34.03;;;32.22;;
16354;SDS011;8287;51.644;8.494;2023-02-15T01:27:59;33.10;;;31.20;;
16354;SDS011;8287;51.644;8.494;2023-02-15T01:30:26;30.65;;;28.75;;
16354;SDS011;8287;51.644;8.494;2023-02-15T01:32:52;35.17;;;32.95;;
16354;SDS011;8287;51.644;8.494;2023-02-15T01:35:19;37.28;;;35.28;;
16354;SDS011;8287;51.644;8.494;2023-02-15T01:37:47;31.58;;;29.80;;
16354;SDS011;8287;51.644;8.494;2023-02-15T01:40:14;31.50;;;29.52;;
16354;SDS011;8287;51.644;8.494;2023-02-15T01:42:42;31.98;;;30.17;;
16354;SDS011;8287;51.644;8.494;2023-02-15T01:45:14;30.38;;;28.63;;
16354;SDS011;8287;51.644;8.494;2023-02-15T01:47:48;31.25;;;29.33;;
16354;SDS011;8287;51.644;8.494;2023-02-15T01:50:20;34.00;;;31.33;;
16354;SDS011;8287;51.644;8.494;2023-02-15T01:52:52;29.88;;;28.10;;
16354;SDS011;8287;51.644;8.494;2023-02-15T01:55:24;30.50;;;28.60;;
16354;SDS011;8287;51.644;8.494;2023-02-15T01:57:52;28.38;;;26.58;;
16354;SDS011;8287;51.644;8.494;2023-02-15T02:00:19;29.90;;;27.90;;
16354;SDS011;8287;51.644;8.494;2023-02-15T02:02:47;28.70;;;26.92;;
16354;SDS011;8287;51.644;8.494;2023-02-15T02:05:16;27.05;;;25.15;;
16354;SDS011;8287;51.644;8.494;2023-02-15T02:07:46;26.67;;;25.08;;
16354;SDS011;8287;51.644;8.494;2023-02-15T02:10:18;28.00;;;26.52;;
16354;SDS011;8287;51.644;8.494;2023-02-15T02:12:47;29.17;;;27.35;;
16354;SDS011;8287;51.644;8.494;2023-02-15T02:15:16;29.08;;;27.02;;
16354;SDS011;8287;51.644;8.494;2023-02-15T02:17:47;28.92;;;27.38;;
16354;SDS011;8287;51.644;8.494;2023-02-15T02:20:37;28.27;;;26.33;;
16354;SDS011;8287;51.644;8.494;2023-02-15T02:23:31;25.58;;;23.75;;
16354;SDS011;8287;51.644;8.494;2023-02-15T02:32:31;27.05;;;25.35;;
16354;SDS011;8287;51.644;8.494;2023-02-15T02:35:22;28.95;;;27.27;;
16354;SDS011;8287;51.644;8.494;2023-02-15T02:37:55;27.85;;;25.95;;
16354;SDS011;8287;51.644;8.494;2023-02-15T02:40:30;27.75;;;26.00;;
16354;SDS011;8287;51.644;8.494;2023-02-15T02:43:05;24.13;;;22.77;;
16354;SDS011;8287;51.644;8.494;2023-02-15T02:45:40;25.67;;;24.08;;
16354;SDS011;8287;51.644;8.494;2023-02-15T02:48:12;27.45;;;25.60;;
16354;SDS011;8287;51.644;8.494;2023-02-15T02:50:43;26.25;;;24.77;;
16354;SDS011;8287;51.644;8.494;2023-02-15T02:53:10;26.77;;;24.35;;
16354;SDS011;8287;51.644;8.494;2023-02-15T02:55:37;26.65;;;24.75;;
16354;SDS011;8287;51.644;8.494;2023-02-15T02:58:08;29.27;;;27.58;;
16354;SDS011;8287;51.644;8.494;2023-02-15T03:00:40;30.40;;;28.80;;
16354;SDS011;8287;51.644;8.494;2023-02-15T03:03:12;30.15;;;28.35;;
16354;SDS011;8287;51.644;8.494;2023-02-15T03:05:46;26.30;;;24.63;;
16354;SDS011;8287;51.644;8.494;2023-02-15T03:08:17;27.17;;;25.45;;
16354;SDS011;8287;51.644;8.494;2023-02-15T03:10:49;33.28;;;31.55;;
16354;SDS011;8287;51.644;8.494;2023-02-15T03:13:19;24.90;;;23.40;;
16354;SDS011;8287;51.644;8.494;2023-02-15T03:15:46;29.30;;;27.75;;
16354;SDS011;8287;51.644;8.494;2023-02-15T03:18:35;41.22;;;39.20;;
16354;SDS011;8287;51.644;8.494;2023-02-15T03:21:06;39.40;;;37.08;;
16354;SDS011;8287;51.644;8.494;2023-02-15T03:23:47;36.60;;;34.70;;
16354;SDS011;8287;51.644;8.494;2023-02-15T03:26:16;34.55;;;32.67;;
16354;SDS011;8287;51.644;8.494;2023-02-15T03:28:45;31.92;;;30.13;;
16354;SDS011;8287;51.644;8.494;2023-02-15T03:31:16;31.35;;;29.45;;
16354;SDS011;8287;51.644;8.494;2023-02-15T03:33:46;34.90;;;32.92;;
16354;SDS011;8287;51.644;8.494;2023-02-15T03:36:19;40.40;;;38.20;;
16354;SDS011;8287;51.644;8.494;2023-02-15T03:38:51;28.25;;;26.65;;
16354;SDS011;8287;51.644;8.494;2023-02-15T03:41:24;33.95;;;32.28;;
16354;SDS011;8287;51.644;8.494;2023-02-15T03:43:56;31.83;;;29.98;;
16354;SDS011;8287;51.644;8.494;2023-02-15T03:46:27;30.60;;;29.00;;
16354;SDS011;8287;51.644;8.494;2023-02-15T03:49:01;29.73;;;28.13;;
16354;SDS011;8287;51.644;8.494;2023-02-15T03:51:34;38.67;;;36.60;;
16354;SDS011;8287;51.644;8.494;2023-02-15T03:54:04;35.78;;;33.75;;
16354;SDS011;8287;51.644;8.494;2023-02-15T03:56:33;35.90;;;34.03;;
16354;SDS011;8287;51.644;8.494;2023-02-15T03:59:02;35.70;;;33.88;;
16354;SDS011;8287;51.644;8.494;2023-02-15T04:01:47;39.08;;;36.88;;
16354;SDS011;8287;51.644;8.494;2023-02-15T04:04:24;37.28;;;35.22;;
16354;SDS011;8287;51.644;8.494;2023-02-15T04:06:55;40.35;;;38.25;;
16354;SDS011;8287;51.644;8.494;2023-02-15T04:09:22;42.65;;;40.45;;
16354;SDS011;8287;51.644;8.494;2023-02-15T04:12:06;43.17;;;41.05;;
16354;SDS011;8287;51.644;8.494;2023-02-15T04:14:33;42.55;;;40.30;;
16354;SDS011;8287;51.644;8.494;2023-02-15T04:17:17;45.40;;;43.05;;
16354;SDS011;8287;51.644;8.494;2023-02-15T04:19:44;47.15;;;44.45;;
16354;SDS011;8287;51.644;8.494;2023-02-15T04:22:29;45.00;;;42.28;;
16354;SDS011;8287;51.644;8.494;2023-02-15T04:25:13;46.03;;;43.70;;
16354;SDS011;8287;51.644;8.494;2023-02-15T04:27:40;45.35;;;43.05;;
16354;SDS011;8287;51.644;8.494;2023-02-15T04:30:09;34.72;;;32.53;;
16354;SDS011;8287;51.644;8.494;2023-02-15T04:32:37;31.02;;;29.33;;
16354;SDS011;8287;51.644;8.494;2023-02-15T04:35:04;39.33;;;37.13;;
16354;SDS011;8287;51.644;8.494;2023-02-15T04:37:33;38.97;;;37.08;;
16354;SDS011;8287;51.644;8.494;2023-02-15T04:40:00;44.53;;;41.90;;
16354;SDS011;8287;51.644;8.494;2023-02-15T04:42:27;42.70;;;40.28;;
16354;SDS011;8287;51.644;8.494;2023-02-15T04:44:53;44.85;;;42.08;;
16354;SDS011;8287;51.644;8.494;2023-02-15T04:47:20;44.20;;;41.83;;
16354;SDS011;8287;51.644;8.494;2023-02-15T04:49:47;45.72;;;43.35;;
16354;SDS011;8287;51.644;8.494;2023-02-15T04:52:14;46.25;;;43.67;;
16354;SDS011;8287;51.644;8.494;2023-02-15T04:54:43;44.92;;;42.67;;
16354;SDS011;8287;51.644;8.494;2023-02-15T04:57:10;43.30;;;40.65;;
16354;SDS011;8287;51.644;8.494;2023-02-15T04:59:37;46.17;;;43.58;;
16354;SDS011;8287;51.644;8.494;2023-02-15T05:02:03;49.30;;;46.35;;
16354;SDS011;8287;51.644;8.494;2023-02-15T05:04:30;47.25;;;44.28;;
16354;SDS011;8287;51.644;8.494;2023-02-15T05:06:57;47.00;;;44.67;;
16354;SDS011;8287;51.644;8.494;2023-02-15T05:09:23;47.00;;;44.45;;
16354;SDS011;8287;51.644;8.494;2023-02-15T05:11:52;39.17;;;36.97;;
16354;SDS011;8287;51.644;8.494;2023-02-15T05:14:18;42.95;;;40.65;;
16354;SDS011;8287;51.644;8.494;2023-02-15T05:16:45;49.78;;;47.17;;
16354;SDS011;8287;51.644;8.494;2023-02-15T05:19:11;55.33;;;52.20;;
16354;SDS011;8287;51.644;8.494;2023-02-15T05:21:39;54.40;;;51.65;;
16354;SDS011;8287;51.644;8.494;2023-02-15T05:24:06;51.38;;;48.40;;
16354;SDS011;8287;51.644;8.494;2023-02-15T05:26:55;52.75;;;50.08;;
16354;SDS011;8287;51.644;8.494;2023-02-15T05:29:39;53.13;;;50.47;;
16354;SDS011;8287;51.644;8.494;2023-02-15T05:32:05;54.45;;;51.83;;
16354;SDS011;8287;51.644;8.494;2023-02-15T05:34:32;49.17;;;46.78;;
16354;SDS011;8287;51.644;8.494;2023-02-15T05:36:58;48.47;;;45.97;;
16354;SDS011;8287;51.644;8.494;2023-02-15T05:39:25;49.85;;;46.65;;
16354;SDS011;8287;51.644;8.494;2023-02-15T05:41:51;50.85;;;48.08;;
16354;SDS011;8287;51.644;8.494;2023-02-15T05:44:19;52.85;;;50.25;;
16354;SDS011;8287;51.644;8.494;2023-02-15T05:46:46;49.08;;;46.65;;
16354;SDS011;8287;51.644;8.494;2023-02-15T05:49:13;41.50;;;39.20;;
16354;SDS011;8287;51.644;8.494;2023-02-15T05:51:39;51.47;;;48.88;;
16354;SDS011;8287;51.644;8.494;2023-02-15T05:54:06;51.72;;;49.13;;
16354;SDS011;8287;51.644;8.494;2023-02-15T05:56:32;54.92;;;51.83;;
16354;SDS011;8287;51.644;8.494;2023-02-15T05:58:59;49.33;;;46.70;;
16354;SDS011;8287;51.644;8.494;2023-02-15T06:01:27;50.72;;;48.00;;
16354;SDS011;8287;51.644;8.494;2023-02-15T06:03:54;49.85;;;47.30;;
16354;SDS011;8287;51.644;8.494;2023-02-15T06:06:20;46.40;;;43.78;;
16354;SDS011;8287;51.644;8.494;2023-02-15T06:08:47;50.85;;;48.20;;
16354;SDS011;8287;51.644;8.494;2023-02-15T06:11:14;51.92;;;48.80;;
16354;SDS011;8287;51.644;8.494;2023-02-15T06:13:40;51.75;;;48.83;;
16354;SDS011;8287;51.644;8.494;2023-02-15T06:16:07;50.45;;;47.60;;
16354;SDS011;8287;51.644;8.494;2023-02-15T06:18:35;54.65;;;51.47;;
16354;SDS011;8287;51.644;8.494;2023-02-15T06:21:02;52.42;;;49.63;;
16354;SDS011;8287;51.644;8.494;2023-02-15T06:23:28;52.70;;;49.80;;
16354;SDS011;8287;51.644;8.494;2023-02-15T06:25:55;56.17;;;52.90;;
16354;SDS011;8287;51.644;8.494;2023-02-15T06:28:21;52.78;;;49.85;;
16354;SDS011;8287;51.644;8.494;2023-02-15T06:30:50;55.22;;;52.35;;
16354;SDS011;8287;51.644;8.494;2023-02-15T06:33:17;54.80;;;52.10;;
16354;SDS011;8287;51.644;8.494;2023-02-15T06:35:48;53.13;;;50.00;;
16354;SDS011;8287;51.644;8.494;2023-02-15T06:38:14;54.17;;;51.22;;
16354;SDS011;8287;51.644;8.494;2023-02-15T06:40:41;53.83;;;50.65;;
16354;SDS011;8287;51.644;8.494;2023-02-15T06:43:07;48.42;;;45.58;;
16354;SDS011;8287;51.644;8.494;2023-02-15T06:45:34;51.53;;;48.75;;
16354;SDS011;8287;51.644;8.494;2023-02-15T06:48:00;51.63;;;48.72;;
16354;SDS011;8287;51.644;8.494;2023-02-15T06:50:27;45.08;;;42.58;;
16354;SDS011;8287;51.644;8.494;2023-02-15T06:52:57;46.97;;;44.10;;
16354;SDS011;8287;51.644;8.494;2023-02-15T06:55:24;50.30;;;47.40;;
16354;SDS011;8287;51.644;8.494;2023-02-15T06:57:50;52.38;;;49.38;;
16354;SDS011;8287;51.644;8.494;2023-02-15T07:00:17;52.50;;;49.65;;
16354;SDS011;8287;51.644;8.494;2023-02-15T07:02:44;48.42;;;45.65;;
16354;SDS011;8287;51.644;8.494;2023-02-15T07:05:11;46.05;;;43.13;;
16354;SDS011;8287;51.644;8.494;2023-02-15T07:07:38;47.40;;;44.70;;
16354;SDS011;8287;51.644;8.494;2023-02-15T07:10:06;52.95;;;49.80;;
16354;SDS011;8287;51.644;8.494;2023-02-15T07:12:33;52.75;;;49.72;;
16354;SDS011;8287;51.644;8.494;2023-02-15T07:15:09;53.72;;;50.63;;
16354;SDS011;8287;51.644;8.494;2023-02-15T07:17:37;60.72;;;57.10;;
16354;SDS011;8287;51.644;8.494;2023-02-15T07:20:05;57.72;;;54.42;;
16354;SDS011;8287;51.644;8.494;2023-02-15T07:22:33;56.97;;;53.75;;
16354;SDS011;8287;51.644;8.494;2023-02-15T07:25:01;51.25;;;48.65;;
16354;SDS011;8287;51.644;8.494;2023-02-15T07:27:30;56.25;;;53.05;;
16354;SDS011;8287;51.644;8.494;2023-02-15T07:29:57;55.35;;;52.28;;
16354;SDS011;8287;51.644;8.494;2023-02-15T07:32:23;53.80;;;50.78;;
16354;SDS011;8287;51.644;8.494;2023-02-15T07:34:53;67.90;;;63.40;;
16354;SDS011;8287;51.644;8.494;2023-02-15T07:37:20;59.00;;;55.20;;
16354;SDS011;8287;51.644;8.494;2023-02-15T07:39:46;48.97;;;45.33;;
16354;SDS011;8287;51.644;8.494;2023-02-15T07:42:13;43.78;;;39.78;;
16354;SDS011;8287;51.644;8.494;2023-02-15T07:44:41;39.40;;;36.33;;
16354;SDS011;8287;51.644;8.494;2023-02-15T07:47:07;36.58;;;34.20;;
16354;SDS011;8287;51.644;8.494;2023-02-15T07:49:34;36.10;;;33.10;;
16354;SDS011;8287;51.644;8.494;2023-02-15T07:52:01;37.45;;;34.10;;
16354;SDS011;8287;51.644;8.494;2023-02-15T07:54:28;36.60;;;34.10;;
16354;SDS011;8287;51.644;8.494;2023-02-15T07:56:54;41.58;;;38.10;;
16354;SDS011;8287;51.644;8.494;2023-02-15T07:59:21;40.80;;;37.70;;
16354;SDS011;8287;51.644;8.494;2023-02-15T08:01:50;36.85;;;34.47;;
16354;SDS011;8287;51.644;8.494;2023-02-15T08:04:21;37.22;;;34.05;;
16354;SDS011;8287;51.644;8.494;2023-02-15T08:06:47;37.67;;;34.60;;
16354;SDS011;8287;51.644;8.494;2023-02-15T08:09:18;36.33;;;33.42;;
16354;SDS011;8287;51.644;8.494;2023-02-15T08:11:45;36.17;;;33.53;;
16354;SDS011;8287;51.644;8.494;2023-02-15T08:14:13;37.13;;;33.97;;
16354;SDS011;8287;51.644;8.494;2023-02-15T08:16:41;34.00;;;31.27;;
16354;SDS011;8287;51.644;8.494;2023-02-15T08:19:10;38.45;;;34.92;;
16354;SDS011;8287;51.644;8.494;2023-02-15T08:21:38;36.05;;;33.22;;
16354;SDS011;8287;51.644;8.494;2023-02-15T08:24:07;34.30;;;31.73;;
16354;SDS011;8287;51.644;8.494;2023-02-15T08:26:35;35.83;;;33.03;;
16354;SDS011;8287;51.644;8.494;2023-02-15T08:29:02;31.02;;;28.65;;
16354;SDS011;8287;51.644;8.494;2023-02-15T08:31:29;32.38;;;29.77;;
16354;SDS011;8287;51.644;8.494;2023-02-15T08:33:56;31.15;;;28.77;;
16354;SDS011;8287;51.644;8.494;2023-02-15T08:36:26;32.17;;;29.70;;
16354;SDS011;8287;51.644;8.494;2023-02-15T08:38:54;37.72;;;34.38;;
16354;SDS011;8287;51.644;8.494;2023-02-15T08:41:23;34.10;;;31.67;;
16354;SDS011;8287;51.644;8.494;2023-02-15T08:43:52;34.88;;;32.65;;
16354;SDS011;8287;51.644;8.494;2023-02-15T08:46:20;34.63;;;32.17;;
16354;SDS011;8287;51.644;8.494;2023-02-15T08:48:48;35.42;;;32.88;;
16354;SDS011;8287;51.644;8.494;2023-02-15T08:51:15;42.03;;;38.67;;
16354;SDS011;8287;51.644;8.494;2023-02-15T08:53:45;37.67;;;34.67;;
16354;SDS011;8287;51.644;8.494;2023-02-15T08:56:14;35.40;;;32.90;;
16354;SDS011;8287;51.644;8.494;2023-02-15T08:58:41;35.25;;;32.35;;
16354;SDS011;8287;51.644;8.494;2023-02-15T09:01:08;32.90;;;30.33;;
16354;SDS011;8287;51.644;8.494;2023-02-15T09:03:36;37.53;;;34.40;;
16354;SDS011;8287;51.644;8.494;2023-02-15T09:06:02;30.13;;;28.05;;
16354;SDS011;8287;51.644;8.494;2023-02-15T09:08:29;31.55;;;29.17;;
16354;SDS011;8287;51.644;8.494;2023-02-15T09:11:05;31.48;;;29.17;;
16354;SDS011;8287;51.644;8.494;2023-02-15T09:13:36;30.52;;;28.63;;
16354;SDS011;8287;51.644;8.494;2023-02-15T09:16:04;30.70;;;28.67;;
16354;SDS011;8287;51.644;8.494;2023-02-15T09:18:33;33.92;;;31.73;;
16354;SDS011;8287;51.644;8.494;2023-02-15T09:21:03;31.58;;;29.58;;
16354;SDS011;8287;51.644;8.494;2023-02-15T09:23:31;37.42;;;34.60;;
16354;SDS011;8287;51.644;8.494;2023-02-15T09:26:01;32.08;;;30.15;;
16354;SDS011;8287;51.644;8.494;2023-02-15T09:28:30;35.78;;;33.45;;
16354;SDS011;8287;51.644;8.494;2023-02-15T09:31:03;33.88;;;31.38;;
16354;SDS011;8287;51.644;8.494;2023-02-15T09:33:31;34.65;;;32.60;;
16354;SDS011;8287;51.644;8.494;2023-02-15T09:35:59;34.95;;;32.88;;
16354;SDS011;8287;51.644;8.494;2023-02-15T09:38:26;34.10;;;31.83;;
16354;SDS011;8287;51.644;8.494;2023-02-15T09:40:55;34.55;;;32.25;;
16354;SDS011;8287;51.644;8.494;2023-02-15T09:43:34;36.50;;;34.08;;
16354;SDS011;8287;51.644;8.494;2023-02-15T09:46:13;39.95;;;36.78;;
16354;SDS011;8287;51.644;8.494;2023-02-15T09:48:49;46.15;;;42.22;;
16354;SDS011;8287;51.644;8.494;2023-02-15T09:51:25;35.78;;;32.97;;
16354;SDS011;8287;51.644;8.494;2023-02-15T09:56:58;34.38;;;31.83;;
16354;SDS011;8287;51.644;8.494;2023-02-15T09:59:34;30.63;;;28.65;;
16354;SDS011;8287;51.644;8.494;2023-02-15T10:02:13;32.33;;;30.23;;
16354;SDS011;8287;51.644;8.494;2023-02-15T10:05:01;31.27;;;29.15;;
16354;SDS011;8287;51.644;8.494;2023-02-15T10:07:42;30.83;;;28.90;;
16354;SDS011;8287;51.644;8.494;2023-02-15T10:10:21;31.83;;;29.55;;
16354;SDS011;8287;51.644;8.494;2023-02-15T10:13:02;31.70;;;29.73;;
16354;SDS011;8287;51.644;8.494;2023-02-15T10:15:50;34.55;;;31.88;;
16354;SDS011;8287;51.644;8.494;2023-02-15T10:18:39;33.47;;;31.55;;
16354;SDS011;8287;51.644;8.494;2023-02-15T10:21:24;35.90;;;33.70;;
16354;SDS011;8287;51.644;8.494;2023-02-15T10:27:05;38.63;;;36.20;;
16354;SDS011;8287;51.644;8.494;2023-02-15T10:29:38;45.22;;;42.25;;
16354;SDS011;8287;51.644;8.494;2023-02-15T10:32:13;46.95;;;44.08;;
16354;SDS011;8287;51.644;8.494;2023-02-15T10:34:48;47.58;;;44.63;;
16354;SDS011;8287;51.644;8.494;2023-02-15T10:40:15;51.75;;;48.85;;
16354;SDS011;8287;51.644;8.494;2023-02-15T10:42:58;46.25;;;42.83;;
16354;SDS011;8287;51.644;8.494;2023-02-15T10:45:48;46.25;;;43.58;;
16354;SDS011;8287;51.644;8.494;2023-02-15T10:48:25;42.97;;;40.25;;
16354;SDS011;8287;51.644;8.494;2023-02-15T10:51:03;36.88;;;34.60;;
16354;SDS011;8287;51.644;8.494;2023-02-15T10:53:38;36.22;;;33.78;;
16354;SDS011;8287;51.644;8.494;2023-02-15T10:56:23;35.90;;;33.45;;
16354;SDS011;8287;51.644;8.494;2023-02-15T10:59:03;33.58;;;31.48;;
16354;SDS011;8287;51.644;8.494;2023-02-15T11:01:43;30.25;;;28.30;;
16354;SDS011;8287;51.644;8.494;2023-02-15T11:04:37;33.55;;;31.00;;
16354;SDS011;8287;51.644;8.494;2023-02-15T11:07:12;29.70;;;27.73;;
16354;SDS011;8287;51.644;8.494;2023-02-15T11:09:44;30.35;;;28.15;;
16354;SDS011;8287;51.644;8.494;2023-02-15T11:12:15;32.63;;;30.05;;
16354;SDS011;8287;51.644;8.494;2023-02-15T11:14:46;30.38;;;28.17;;
16354;SDS011;8287;51.644;8.494;2023-02-15T11:17:21;27.58;;;25.70;;
16354;SDS011;8287;51.644;8.494;2023-02-15T11:19:54;28.98;;;26.90;;
16354;SDS011;8287;51.644;8.494;2023-02-15T11:22:26;27.80;;;25.85;;
16354;SDS011;8287;51.644;8.494;2023-02-15T11:24:53;26.75;;;24.95;;
16354;SDS011;8287;51.644;8.494;2023-02-15T11:27:23;27.30;;;25.38;;
16354;SDS011;8287;51.644;8.494;2023-02-15T11:29:54;27.13;;;25.02;;
16354;SDS011;8287;51.644;8.494;2023-02-15T11:32:26;27.60;;;25.63;;
16354;SDS011;8287;51.644;8.494;2023-02-15T11:34:58;27.67;;;25.63;;
16354;SDS011;8287;51.644;8.494;2023-02-15T11:37:31;24.70;;;22.90;;
16354;SDS011;8287;51.644;8.494;2023-02-15T11:40:03;25.90;;;24.02;;
16354;SDS011;8287;51.644;8.494;2023-02-15T11:42:44;25.23;;;23.42;;
16354;SDS011;8287;51.644;8.494;2023-02-15T11:45:17;27.42;;;25.50;;
16354;SDS011;8287;51.644;8.494;2023-02-15T11:47:49;24.05;;;22.15;;
16354;SDS011;8287;51.644;8.494;2023-02-15T11:50:19;25.90;;;23.75;;
16354;SDS011;8287;51.644;8.494;2023-02-15T11:52:48;26.15;;;23.70;;
16354;SDS011;8287;51.644;8.494;2023-02-15T11:55:18;26.33;;;24.63;;
16354;SDS011;8287;51.644;8.494;2023-02-15T11:57:48;25.50;;;23.55;;
16354;SDS011;8287;51.644;8.494;2023-02-15T12:00:22;25.20;;;23.50;;
16354;SDS011;8287;51.644;8.494;2023-02-15T12:03:00;25.23;;;23.50;;
16354;SDS011;8287;51.644;8.494;2023-02-15T12:05:35;24.67;;;22.92;;
16354;SDS011;8287;51.644;8.494;2023-02-15T12:08:09;26.45;;;24.35;;
16354;SDS011;8287;51.644;8.494;2023-02-15T12:10:40;26.17;;;24.10;;
16354;SDS011;8287;51.644;8.494;2023-02-15T12:13:17;27.73;;;25.77;;
16354;SDS011;8287;51.644;8.494;2023-02-15T12:15:46;38.13;;;34.20;;
16354;SDS011;8287;51.644;8.494;2023-02-15T12:18:19;27.02;;;25.02;;
16354;SDS011;8287;51.644;8.494;2023-02-15T12:20:52;26.83;;;24.95;;
16354;SDS011;8287;51.644;8.494;2023-02-15T12:23:23;24.88;;;23.27;;
16354;SDS011;8287;51.644;8.494;2023-02-15T12:25:54;24.33;;;22.63;;
16354;SDS011;8287;51.644;8.494;2023-02-15T12:28:24;26.02;;;23.63;;
16354;SDS011;8287;51.644;8.494;2023-02-15T12:30:56;25.38;;;23.65;;
16354;SDS011;8287;51.644;8.494;2023-02-15T12:33:26;30.58;;;27.95;;
16354;SDS011;8287;51.644;8.494;2023-02-15T12:35:58;28.83;;;26.95;;
16354;SDS011;8287;51.644;8.494;2023-02-15T12:38:28;28.75;;;26.85;;
16354;SDS011;8287;51.644;8.494;2023-02-15T12:40:59;30.45;;;28.65;;
16354;SDS011;8287;51.644;8.494;2023-02-15T12:43:27;27.42;;;25.63;;
16354;SDS011;8287;51.644;8.494;2023-02-15T12:48:49;30.77;;;28.98;;
16354;SDS011;8287;51.644;8.494;2023-02-15T12:51:43;32.10;;;29.65;;
16354;SDS011;8287;51.644;8.494;2023-02-15T12:57:12;29.38;;;27.48;;
16354;SDS011;8287;51.644;8.494;2023-02-15T12:59:54;29.85;;;27.92;;
16354;SDS011;8287;51.644;8.494;2023-02-15T13:02:29;28.63;;;26.50;;
16354;SDS011;8287;51.644;8.494;2023-02-15T13:05:10;28.80;;;26.70;;
16354;SDS011;8287;51.644;8.494;2023-02-15T13:07:45;28.83;;;27.02;;
16354;SDS011;8287;51.644;8.494;2023-02-15T13:10:21;26.15;;;23.95;;
16354;SDS011;8287;51.644;8.494;2023-02-15T13:12:50;26.25;;;24.45;;
16354;SDS011;8287;51.644;8.494;2023-02-15T13:15:23;26.48;;;24.60;;
16354;SDS011;8287;51.644;8.494;2023-02-15T13:17:52;27.20;;;25.40;;
16354;SDS011;8287;51.644;8.494;2023-02-15T13:20:21;27.35;;;25.35;;
16354;SDS011;8287;51.644;8.494;2023-02-15T13:22:50;27.02;;;25.38;;
16354;SDS011;8287;51.644;8.494;2023-02-15T13:25:20;27.83;;;25.98;;
16354;SDS011;8287;51.644;8.494;2023-02-15T13:27:50;27.70;;;25.75;;
16354;SDS011;8287;51.644;8.494;2023-02-15T13:30:22;30.15;;;28.42;;
16354;SDS011;8287;51.644;8.494;2023-02-15T13:32:51;33.40;;;31.13;;
16354;SDS011;8287;51.644;8.494;2023-02-15T13:35:22;33.83;;;31.52;;
16354;SDS011;8287;51.644;8.494;2023-02-15T13:37:57;31.58;;;29.38;;
16354;SDS011;8287;51.644;8.494;2023-02-15T13:40:33;32.42;;;30.23;;
16354;SDS011;8287;51.644;8.494;2023-02-15T13:43:04;36.83;;;34.35;;
16354;SDS011;8287;51.644;8.494;2023-02-15T13:45:41;33.90;;;31.90;;
16354;SDS011;8287;51.644;8.494;2023-02-15T13:48:20;38.15;;;35.33;;
16354;SDS011;8287;51.644;8.494;2023-02-15T13:51:00;35.58;;;33.50;;
16354;SDS011;8287;51.644;8.494;2023-02-15T13:56:34;35.58;;;33.22;;
16354;SDS011;8287;51.644;8.494;2023-02-15T13:59:22;35.75;;;33.40;;
16354;SDS011;8287;51.644;8.494;2023-02-15T14:05:12;32.28;;;30.33;;
16354;SDS011;8287;51.644;8.494;2023-02-15T14:07:53;33.10;;;31.10;;
16354;SDS011;8287;51.644;8.494;2023-02-15T14:16:24;35.47;;;33.25;;
16354;SDS011;8287;51.644;8.494;2023-02-15T14:19:03;34.20;;;32.17;;
16354;SDS011;8287;51.644;8.494;2023-02-15T14:21:47;37.08;;;34.80;;
16354;SDS011;8287;51.644;8.494;2023-02-15T14:24:25;33.70;;;31.77;;
16354;SDS011;8287;51.644;8.494;2023-02-15T14:27:00;37.22;;;35.00;;
16354;SDS011;8287;51.644;8.494;2023-02-15T14:29:40;35.40;;;32.83;;
16354;SDS011;8287;51.644;8.494;2023-02-15T14:32:13;33.85;;;31.88;;
16354;SDS011;8287;51.644;8.494;2023-02-15T14:34:46;39.50;;;36.75;;
16354;SDS011;8287;51.644;8.494;2023-02-15T14:37:17;34.78;;;32.72;;
16354;SDS011;8287;51.644;8.494;2023-02-15T14:39:50;38.88;;;36.38;;
16354;SDS011;8287;51.644;8.494;2023-02-15T14:42:42;36.97;;;34.38;;
16354;SDS011;8287;51.644;8.494;2023-02-15T14:45:19;32.17;;;30.27;;
16354;SDS011;8287;51.644;8.494;2023-02-15T14:47:52;31.45;;;29.58;;
16354;SDS011;8287;51.644;8.494;2023-02-15T14:50:36;28.25;;;26.50;;
16354;SDS011;8287;51.644;8.494;2023-02-15T14:53:15;30.75;;;28.83;;
16354;SDS011;8287;51.644;8.494;2023-02-15T14:58:57;29.27;;;27.38;;
16354;SDS011;8287;51.644;8.494;2023-02-15T15:01:39;27.85;;;26.10;;
16354;SDS011;8287;51.644;8.494;2023-02-15T15:04:08;25.50;;;23.80;;
16354;SDS011;8287;51.644;8.494;2023-02-15T15:06:39;28.38;;;26.05;;
16354;SDS011;8287;51.644;8.494;2023-02-15T15:09:11;27.50;;;25.35;;
16354;SDS011;8287;51.644;8.494;2023-02-15T15:11:45;30.77;;;28.33;;
16354;SDS011;8287;51.644;8.494;2023-02-15T15:17:11;27.73;;;25.92;;
16354;SDS011;8287;51.644;8.494;2023-02-15T15:22:39;26.55;;;24.85;;
16354;SDS011;8287;51.644;8.494;2023-02-15T15:28:07;27.77;;;25.75;;
16354;SDS011;8287;51.644;8.494;2023-02-15T15:30:48;28.58;;;26.58;;
16354;SDS011;8287;51.644;8.494;2023-02-15T15:33:24;26.35;;;24.77;;
16354;SDS011;8287;51.644;8.494;2023-02-15T15:36:13;30.33;;;28.05;;
16354;SDS011;8287;51.644;8.494;2023-02-15T15:38:58;26.42;;;24.77;;
16354;SDS011;8287;51.644;8.494;2023-02-15T15:41:40;31.73;;;29.92;;
16354;SDS011;8287;51.644;8.494;2023-02-15T15:47:27;30.85;;;28.83;;